Airbus 320-211 from Germanwings at Dusseldorf.
 Regi:D-AIQE  LARGER
 MSN Year:209 2014
 Date of picture:2015-03-18 12:31
 Position:Airborn 23L
 Flight: DEP VIE 4U9750 Vienna Schwechat Austria
 Logs: 2015/03/18 12:50 GWI9750 4U9750 DUS-VIE D-AIQE a/c registered in Germany Germanwings A320
 Metar SA 18/03/2015 12:20 METAR EDDL 181220Z 31008KT 9000 NSC 16/07 Q1026 NOSIG=
 Hits: 22 ID: 2408

Debriefing: Photographed movements of Airports in NW-Europe.
The images of our site attendant is in authorisation from Queen of Sky.
Copying of images of this site have been prohibited in which manner without the authorisation of the photographer.
In behalf of the crew :"Thank you visiting us" - Contact
Factsheets Airbus, 320-211, Germanwings, made by De Plane! © 2006 - 2022 All rights reserved


.